P&o Nedlloyd Regina — A8DH2 — position and weather

sailwx.info

Track history (hours):
 
Tides and Currents Weather Stations Pressure Air Temp Water Temp Dewpoint Dewpoint Depression Visibility Wind Speed Wind Dir Waves Ship Positions

P&o Nedlloyd Regina

Last reported at 2018-Jul-22 21:28 UTC. Time now 2018-Jul-22 21:55 UTC.
Position N 40°40' W 074°09'.

Length 210 m; draft 8 m.

Type: Ship (hazmat cat A). MMSI: 636016796.

Date/timePositionNaut miles runAvg speedWind from/ knotsBaromVisibWave heightAir tempDewpointWater temp
2018-Jul-22 21:28N 40°40' W 074°09'1 1.0
2018-Jul-22 20:59N 40°39' W 074°09'3 6.5
2018-Jul-22 20:30N 40°39' W 074°05'5 9.5
2018-Jul-22 19:57N 40°34' W 074°02'  
2018-Jul-19 18:00N 44°24' W 046°30'47819.9 210 / 231027.0 5.4 20.018.519.0
2018-Jul-18 18:00N 47°24' W 035°54'33918.8 230 / 181027.0 0.0 18.016.417.0
2018-Jul-18 00:00N 48°48' W 027°42'85018.7 320 / 211022.0 5.4 14.011.415.5
2018-Jul-16 02:39N 49°46' W 006°02'618.5
2018-Jul-16 02:18N 49°46' W 005°52'618.8
2018-Jul-16 02:00N 49°47' W 005°44'1018.9
2018-Jul-16 01:30N 49°49' W 005°29'1019.3
2018-Jul-16 01:00N 49°50' W 005°14'916.6
2018-Jul-16 00:29N 49°51' W 005°01'815.9
2018-Jul-16 00:01N 49°53' W 004°50'816.0
2018-Jul-15 23:29N 49°55' W 004°37'816.8
2018-Jul-15 23:00N 49°58' W 004°25'816.5
2018-Jul-15 22:30N 50°01' W 004°13'816.4
2018-Jul-15 22:00N 50°03' W 004°01'816.3
2018-Jul-15 21:30N 50°06' W 003°49'816.4
2018-Jul-15 21:00N 50°08' W 003°37'815.9
2018-Jul-15 20:30N 50°10' W 003°25'816.0
2018-Jul-15 20:01N 50°12' W 003°13'816.0
2018-Jul-15 19:30N 50°14' W 003°01'815.1
2018-Jul-15 19:00N 50°16' W 002°49'714.3
2018-Jul-15 18:30N 50°18' W 002°38'815.1
2018-Jul-15 18:00N 50°20' W 002°27'815.9
2018-Jul-15 17:30N 50°22' W 002°15'815.5
2018-Jul-15 17:00N 50°24' W 002°03'815.4
2018-Jul-15 16:30N 50°26' W 001°52'815.5
2018-Jul-15 16:01N 50°28' W 001°40'815.4
2018-Jul-15 15:31N 50°30' W 001°28'815.4
2018-Jul-15 15:01N 50°32' W 001°17'816.2
2018-Jul-15 14:31N 50°31' W 001°04'917.5
2018-Jul-15 14:01N 50°31' W 000°50'1020.6
2018-Jul-15 13:31N 50°31' W 000°34'1019.2
2018-Jul-15 13:00N 50°31' W 000°18'918.6
2018-Jul-15 12:30N 50°32' W 000°04'813.9
2018-Jul-15 11:57N 50°33' E 000°08'510.4
2018-Jul-15 11:30N 50°34' E 000°15'5 9.8
2018-Jul-15 11:00N 50°36' E 000°22'5 9.7
2018-Jul-15 10:30N 50°37' E 000°30'5 9.9
2018-Jul-15 10:00N 50°38' E 000°37'511.0
2018-Jul-15 09:30N 50°42' E 000°44'612.1
2018-Jul-15 09:00N 50°45' E 000°52'713.0
2018-Jul-15 08:30N 50°49' E 001°00'714.0
2018-Jul-15 08:01N 50°54' E 001°08'714.5
2018-Jul-15 07:30N 50°59' E 001°17'714.8
2018-Jul-15 07:01N 51°04' E 001°26'714.1
2018-Jul-15 06:30N 51°08' E 001°34'612.7
2018-Jul-15 06:00N 51°12' E 001°42'611.9
2018-Jul-15 05:30N 51°17' E 001°47'611.5
2018-Jul-15 05:00N 51°23' E 001°50'510.6
2018-Jul-15 04:30N 51°28' E 001°52'510.8
2018-Jul-15 04:00N 51°33' E 001°49'510.5
2018-Jul-15 03:30N 51°38' E 001°47'510.2
2018-Jul-15 03:00N 51°43' E 001°45'510.4
2018-Jul-15 02:30N 51°48' E 001°43'611.6
2018-Jul-15 02:00N 51°52' E 001°36'5 9.2
2018-Jul-15 01:31N 51°56' E 001°33'713.4
2018-Jul-15 01:00N 51°56' E 001°22'3 6.1
2018-Jul-15 00:30N 51°57' E 001°18'0 0.2
2018-Jul-14 23:58N 51°58' E 001°18'0 0.0
2018-Jul-14 23:28N 51°57' E 001°18'0 0.0
2018-Jul-14 22:58N 51°57' E 001°18'0 0.0
2018-Jul-14 22:30N 51°57' E 001°18'0 0.0
2018-Jul-14 22:00N 51°57' E 001°18'0 0.0
2018-Jul-14 21:30N 51°57' E 001°18'0 0.0
2018-Jul-14 20:57N 51°57' E 001°18'0 0.0
2018-Jul-14 20:30N 51°57' E 001°18'0 0.0
2018-Jul-14 19:59N 51°57' E 001°18'0 0.0
2018-Jul-14 19:29N 51°57' E 001°18'0 0.0
2018-Jul-14 18:59N 51°57' E 001°18'0 0.0
2018-Jul-14 18:29N 51°57' E 001°18'0 0.0
2018-Jul-14 17:59N 51°57' E 001°18'0 0.0
2018-Jul-14 17:28N 51°57' E 001°18'0 0.0
2018-Jul-14 16:58N 51°57' E 001°18'0 0.0
2018-Jul-14 16:28N 51°57' E 001°18'0 0.0
2018-Jul-14 15:58N 51°57' E 001°18'0 0.0
2018-Jul-14 15:30N 51°57' E 001°18'0 0.0
2018-Jul-14 15:00N 51°57' E 001°18'0 0.0
2018-Jul-14 14:00N 51°57' E 001°18'0 0.0
2018-Jul-14 13:30N 51°57' E 001°18'0 0.0
2018-Jul-14 12:59N 51°57' E 001°18'0 0.0
2018-Jul-14 12:29N 51°57' E 001°18'0 0.0
2018-Jul-14 11:59N 51°57' E 001°18'0 0.0
2018-Jul-14 11:29N 51°57' E 001°18'0 0.0
2018-Jul-14 10:59N 51°57' E 001°18'0 0.0
2018-Jul-14 10:28N 51°57' E 001°18'0 0.0
2018-Jul-14 09:58N 51°57' E 001°18'0 0.0
2018-Jul-14 09:28N 51°57' E 001°18'0 0.0
2018-Jul-14 08:58N 51°57' E 001°18'0 0.0
2018-Jul-14 08:30N 51°57' E 001°18'0 0.0
2018-Jul-14 08:00N 51°57' E 001°18'0 0.0
2018-Jul-14 07:30N 51°57' E 001°18'0 0.0
2018-Jul-14 06:57N 51°57' E 001°18'0 0.0
2018-Jul-14 06:30N 51°57' E 001°18'0 0.0
2018-Jul-14 05:59N 51°57' E 001°18'0 0.0
2018-Jul-14 05:29N 51°57' E 001°18'0 0.0
2018-Jul-14 04:59N 51°57' E 001°18'0 0.0
2018-Jul-14 04:29N 51°57' E 001°18'0 0.0
2018-Jul-14 03:59N 51°57' E 001°18'0 0.0
2018-Jul-14 03:28N 51°57' E 001°18'0 0.0
2018-Jul-14 02:58N 51°57' E 001°18'0 0.0
2018-Jul-14 02:28N 51°57' E 001°18'0 0.0
2018-Jul-14 01:58N 51°57' E 001°18'0 0.1
2018-Jul-14 01:30N 51°57' E 001°18'2 3.3
2018-Jul-14 01:00N 51°56' E 001°19'611.1
2018-Jul-14 00:30N 51°56' E 001°28'611.6
2018-Jul-14 00:00N 51°52' E 001°35'611.4
2018-Jul-13 23:30N 51°51' E 001°44'2 4.7
2018-Jul-13 23:00N 51°54' E 001°43'1 1.9
2018-Jul-13 22:29N 51°54' E 001°42'0 0.0
2018-Jul-13 21:59N 51°54' E 001°42'0 0.0
2018-Jul-13 21:28N 51°54' E 001°42'0 0.0
2018-Jul-13 20:58N 51°54' E 001°42'0 0.0
2018-Jul-13 20:28N 51°54' E 001°42'0 0.0
2018-Jul-13 19:58N 51°54' E 001°42'0 0.0
2018-Jul-13 19:28N 51°54' E 001°42'0 0.1
2018-Jul-13 19:00N 51°54' E 001°42'0 0.0
2018-Jul-13 18:30N 51°54' E 001°42'0 0.0
2018-Jul-13 18:00N 51°54' E 001°42'0 0.2
2018-Jul-13 17:30N 51°54' E 001°42'0 0.0
2018-Jul-13 16:59N 51°54' E 001°42'0 0.0
2018-Jul-13 16:29N 51°54' E 001°42'0 0.0
2018-Jul-13 15:59N 51°54' E 001°42'0 0.0
2018-Jul-13 15:29N 51°54' E 001°42'0 0.0
2018-Jul-13 14:59N 51°54' E 001°42'0 0.0
2018-Jul-13 13:58N 51°54' E 001°42'0 0.0
2018-Jul-13 13:28N 51°54' E 001°42'0 0.0
2018-Jul-13 12:58N 51°54' E 001°42'0 0.2
2018-Jul-13 12:31N 51°54' E 001°42'0 0.1
2018-Jul-13 12:00N 51°54' E 001°42'0 0.0
2018-Jul-13 11:30N 51°54' E 001°42'0 0.0
2018-Jul-13 11:00N 51°54' E 001°42'0 0.0
2018-Jul-13 10:30N 51°54' E 001°42'0 0.0
2018-Jul-13 09:59N 51°54' E 001°42'0 0.0
2018-Jul-13 09:29N 51°54' E 001°42'0 0.0
2018-Jul-13 08:59N 51°54' E 001°42'0 0.0
2018-Jul-13 08:29N 51°54' E 001°42'0 0.0
2018-Jul-13 07:59N 51°54' E 001°42'0 0.0
2018-Jul-13 07:28N 51°54' E 001°42'0 0.1
2018-Jul-13 06:58N 51°54' E 001°42'0 0.1
2018-Jul-13 06:28N 51°54' E 001°42'0 0.0
2018-Jul-13 05:58N 51°54' E 001°42'0 0.0
2018-Jul-13 05:27N 51°54' E 001°42'0 0.2
2018-Jul-13 05:00N 51°54' E 001°42'0 0.0
2018-Jul-13 04:30N 51°54' E 001°42'0 0.0
2018-Jul-13 03:57N 51°54' E 001°42'0 0.1
2018-Jul-13 03:30N 51°54' E 001°42'0 0.0
2018-Jul-13 02:59N 51°54' E 001°42'0 0.0
2018-Jul-13 02:29N 51°54' E 001°42'0 0.0
2018-Jul-13 01:59N 51°54' E 001°42'0 0.1
2018-Jul-13 01:29N 51°54' E 001°42'0 0.0
2018-Jul-13 00:59N 51°54' E 001°42'0 0.2
2018-Jul-13 00:28N 51°54' E 001°42'0 0.3
2018-Jul-12 23:58N 51°54' E 001°42'0 0.0
2018-Jul-12 23:28N 51°54' E 001°42'0 0.0
2018-Jul-12 22:58N 51°54' E 001°42'0 0.0
2018-Jul-12 22:30N 51°54' E 001°42'0 0.0
2018-Jul-12 22:00N 51°54' E 001°42'0 0.0
2018-Jul-12 21:30N 51°54' E 001°42'  
Track history (hours):
 
Tides and Currents Weather Stations Pressure Air Temp Water Temp Dewpoint Dewpoint Depression Visibility Wind Speed Wind Dir Waves Ship Positions

P&o Nedlloyd Regina

Last reported at 2018-Jul-22 21:28 UTC. Time now 2018-Jul-22 21:55 UTC.
Position N 40°40' W 074°09'.

Length 210 m; draft 8 m.

Type: Ship (hazmat cat A). MMSI: 636016796.

Date/timePositionNaut miles runAvg speedWind from/ knotsBaromVisibWave heightAir tempDewpointWater temp
2018-Jul-22 21:28N 40°40' W 074°09'1 1.0
2018-Jul-22 20:59N 40°39' W 074°09'3 6.5
2018-Jul-22 20:30N 40°39' W 074°05'5 9.5
2018-Jul-22 19:57N 40°34' W 074°02'  
2018-Jul-19 18:00N 44°24' W 046°30'47819.9 210 / 231027.0 5.4 20.018.519.0
2018-Jul-18 18:00N 47°24' W 035°54'33918.8 230 / 181027.0 0.0 18.016.417.0
2018-Jul-18 00:00N 48°48' W 027°42'85018.7 320 / 211022.0 5.4 14.011.415.5
2018-Jul-16 02:39N 49°46' W 006°02'618.5
2018-Jul-16 02:18N 49°46' W 005°52'618.8
2018-Jul-16 02:00N 49°47' W 005°44'1018.9
2018-Jul-16 01:30N 49°49' W 005°29'1019.3
2018-Jul-16 01:00N 49°50' W 005°14'916.6
2018-Jul-16 00:29N 49°51' W 005°01'815.9
2018-Jul-16 00:01N 49°53' W 004°50'816.0
2018-Jul-15 23:29N 49°55' W 004°37'816.8
2018-Jul-15 23:00N 49°58' W 004°25'816.5
2018-Jul-15 22:30N 50°01' W 004°13'816.4
2018-Jul-15 22:00N 50°03' W 004°01'816.3
2018-Jul-15 21:30N 50°06' W 003°49'816.4
2018-Jul-15 21:00N 50°08' W 003°37'815.9
2018-Jul-15 20:30N 50°10' W 003°25'816.0
2018-Jul-15 20:01N 50°12' W 003°13'816.0
2018-Jul-15 19:30N 50°14' W 003°01'815.1
2018-Jul-15 19:00N 50°16' W 002°49'714.3
2018-Jul-15 18:30N 50°18' W 002°38'815.1
2018-Jul-15 18:00N 50°20' W 002°27'815.9
2018-Jul-15 17:30N 50°22' W 002°15'815.5
2018-Jul-15 17:00N 50°24' W 002°03'815.4
2018-Jul-15 16:30N 50°26' W 001°52'815.5
2018-Jul-15 16:01N 50°28' W 001°40'815.4
2018-Jul-15 15:31N 50°30' W 001°28'815.4
2018-Jul-15 15:01N 50°32' W 001°17'816.2
2018-Jul-15 14:31N 50°31' W 001°04'917.5
2018-Jul-15 14:01N 50°31' W 000°50'1020.6
2018-Jul-15 13:31N 50°31' W 000°34'1019.2
2018-Jul-15 13:00N 50°31' W 000°18'918.6
2018-Jul-15 12:30N 50°32' W 000°04'813.9
2018-Jul-15 11:57N 50°33' E 000°08'510.4
2018-Jul-15 11:30N 50°34' E 000°15'5 9.8
2018-Jul-15 11:00N 50°36' E 000°22'5 9.7
2018-Jul-15 10:30N 50°37' E 000°30'5 9.9
2018-Jul-15 10:00N 50°38' E 000°37'511.0
2018-Jul-15 09:30N 50°42' E 000°44'612.1
2018-Jul-15 09:00N 50°45' E 000°52'713.0
2018-Jul-15 08:30N 50°49' E 001°00'714.0
2018-Jul-15 08:01N 50°54' E 001°08'714.5
2018-Jul-15 07:30N 50°59' E 001°17'714.8
2018-Jul-15 07:01N 51°04' E 001°26'714.1
2018-Jul-15 06:30N 51°08' E 001°34'612.7
2018-Jul-15 06:00N 51°12' E 001°42'611.9
2018-Jul-15 05:30N 51°17' E 001°47'611.5
2018-Jul-15 05:00N 51°23' E 001°50'510.6
2018-Jul-15 04:30N 51°28' E 001°52'510.8
2018-Jul-15 04:00N 51°33' E 001°49'510.5
2018-Jul-15 03:30N 51°38' E 001°47'510.2
2018-Jul-15 03:00N 51°43' E 001°45'510.4
2018-Jul-15 02:30N 51°48' E 001°43'611.6
2018-Jul-15 02:00N 51°52' E 001°36'5 9.2
2018-Jul-15 01:31N 51°56' E 001°33'713.4
2018-Jul-15 01:00N 51°56' E 001°22'3 6.1
2018-Jul-15 00:30N 51°57' E 001°18'0 0.2
2018-Jul-14 23:58N 51°58' E 001°18'0 0.0
2018-Jul-14 23:28N 51°57' E 001°18'0 0.0
2018-Jul-14 22:58N 51°57' E 001°18'0 0.0
2018-Jul-14 22:30N 51°57' E 001°18'0 0.0
2018-Jul-14 22:00N 51°57' E 001°18'0 0.0
2018-Jul-14 21:30N 51°57' E 001°18'0 0.0
2018-Jul-14 20:57N 51°57' E 001°18'0 0.0
2018-Jul-14 20:30N 51°57' E 001°18'0 0.0
2018-Jul-14 19:59N 51°57' E 001°18'0 0.0
2018-Jul-14 19:29N 51°57' E 001°18'0 0.0
2018-Jul-14 18:59N 51°57' E 001°18'0 0.0
2018-Jul-14 18:29N 51°57' E 001°18'0 0.0
2018-Jul-14 17:59N 51°57' E 001°18'0 0.0
2018-Jul-14 17:28N 51°57' E 001°18'0 0.0
2018-Jul-14 16:58N 51°57' E 001°18'0 0.0
2018-Jul-14 16:28N 51°57' E 001°18'0 0.0
2018-Jul-14 15:58N 51°57' E 001°18'0 0.0
2018-Jul-14 15:30N 51°57' E 001°18'0 0.0
2018-Jul-14 15:00N 51°57' E 001°18'0 0.0
2018-Jul-14 14:00N 51°57' E 001°18'0 0.0
2018-Jul-14 13:30N 51°57' E 001°18'0 0.0
2018-Jul-14 12:59N 51°57' E 001°18'0 0.0
2018-Jul-14 12:29N 51°57' E 001°18'0 0.0
2018-Jul-14 11:59N 51°57' E 001°18'0 0.0
2018-Jul-14 11:29N 51°57' E 001°18'0 0.0
2018-Jul-14 10:59N 51°57' E 001°18'0 0.0
2018-Jul-14 10:28N 51°57' E 001°18'0 0.0
2018-Jul-14 09:58N 51°57' E 001°18'0 0.0
2018-Jul-14 09:28N 51°57' E 001°18'0 0.0
2018-Jul-14 08:58N 51°57' E 001°18'0 0.0
2018-Jul-14 08:30N 51°57' E 001°18'0 0.0
2018-Jul-14 08:00N 51°57' E 001°18'0 0.0
2018-Jul-14 07:30N 51°57' E 001°18'0 0.0
2018-Jul-14 06:57N 51°57' E 001°18'0 0.0
2018-Jul-14 06:30N 51°57' E 001°18'0 0.0
2018-Jul-14 05:59N 51°57' E 001°18'0 0.0
2018-Jul-14 05:29N 51°57' E 001°18'0 0.0
2018-Jul-14 04:59N 51°57' E 001°18'0 0.0
2018-Jul-14 04:29N 51°57' E 001°18'0 0.0
2018-Jul-14 03:59N 51°57' E 001°18'0 0.0
2018-Jul-14 03:28N 51°57' E 001°18'0 0.0
2018-Jul-14 02:58N 51°57' E 001°18'0 0.0
2018-Jul-14 02:28N 51°57' E 001°18'0 0.0
2018-Jul-14 01:58N 51°57' E 001°18'0 0.1
2018-Jul-14 01:30N 51°57' E 001°18'2 3.3
2018-Jul-14 01:00N 51°56' E 001°19'611.1
2018-Jul-14 00:30N 51°56' E 001°28'611.6
2018-Jul-14 00:00N 51°52' E 001°35'611.4
2018-Jul-13 23:30N 51°51' E 001°44'2 4.7
2018-Jul-13 23:00N 51°54' E 001°43'1 1.9
2018-Jul-13 22:29N 51°54' E 001°42'0 0.0
2018-Jul-13 21:59N 51°54' E 001°42'0 0.0
2018-Jul-13 21:28N 51°54' E 001°42'0 0.0
2018-Jul-13 20:58N 51°54' E 001°42'0 0.0
2018-Jul-13 20:28N 51°54' E 001°42'0 0.0
2018-Jul-13 19:58N 51°54' E 001°42'0 0.0
2018-Jul-13 19:28N 51°54' E 001°42'0 0.1
2018-Jul-13 19:00N 51°54' E 001°42'0 0.0
2018-Jul-13 18:30N 51°54' E 001°42'0 0.0
2018-Jul-13 18:00N 51°54' E 001°42'0 0.2
2018-Jul-13 17:30N 51°54' E 001°42'0 0.0
2018-Jul-13 16:59N 51°54' E 001°42'0 0.0
2018-Jul-13 16:29N 51°54' E 001°42'0 0.0
2018-Jul-13 15:59N 51°54' E 001°42'0 0.0
2018-Jul-13 15:29N 51°54' E 001°42'0 0.0
2018-Jul-13 14:59N 51°54' E 001°42'0 0.0
2018-Jul-13 13:58N 51°54' E 001°42'0 0.0
2018-Jul-13 13:28N 51°54' E 001°42'0 0.0
2018-Jul-13 12:58N 51°54' E 001°42'0 0.2
2018-Jul-13 12:31N 51°54' E 001°42'0 0.1
2018-Jul-13 12:00N 51°54' E 001°42'0 0.0
2018-Jul-13 11:30N 51°54' E 001°42'0 0.0
2018-Jul-13 11:00N 51°54' E 001°42'0 0.0
2018-Jul-13 10:30N 51°54' E 001°42'0 0.0
2018-Jul-13 09:59N 51°54' E 001°42'0 0.0
2018-Jul-13 09:29N 51°54' E 001°42'0 0.0
2018-Jul-13 08:59N 51°54' E 001°42'0 0.0
2018-Jul-13 08:29N 51°54' E 001°42'0 0.0
2018-Jul-13 07:59N 51°54' E 001°42'0 0.0
2018-Jul-13 07:28N 51°54' E 001°42'0 0.1
2018-Jul-13 06:58N 51°54' E 001°42'0 0.1
2018-Jul-13 06:28N 51°54' E 001°42'0 0.0
2018-Jul-13 05:58N 51°54' E 001°42'0 0.0
2018-Jul-13 05:27N 51°54' E 001°42'0 0.2
2018-Jul-13 05:00N 51°54' E 001°42'0 0.0
2018-Jul-13 04:30N 51°54' E 001°42'0 0.0
2018-Jul-13 03:57N 51°54' E 001°42'0 0.1
2018-Jul-13 03:30N 51°54' E 001°42'0 0.0
2018-Jul-13 02:59N 51°54' E 001°42'0 0.0
2018-Jul-13 02:29N 51°54' E 001°42'0 0.0
2018-Jul-13 01:59N 51°54' E 001°42'0 0.1
2018-Jul-13 01:29N 51°54' E 001°42'0 0.0
2018-Jul-13 00:59N 51°54' E 001°42'0 0.2
2018-Jul-13 00:28N 51°54' E 001°42'0 0.3
2018-Jul-12 23:58N 51°54' E 001°42'0 0.0
2018-Jul-12 23:28N 51°54' E 001°42'0 0.0
2018-Jul-12 22:58N 51°54' E 001°42'0 0.0
2018-Jul-12 22:30N 51°54' E 001°42'0 0.0
2018-Jul-12 22:00N 51°54' E 001°42'0 0.0
2018-Jul-12 21:30N 51°54' E 001°42'  

Dump ship's entire track history